sensor_id;sensor_type;location;lat;lon;timestamp;pressure;altitude;pressure_sealevel;temperature;humidity
18167;BME280;9208;42.688;23.404;2023-05-14T00:00:38;95911.16;;;15.30;88.98
18167;BME280;9208;42.688;23.404;2023-05-14T00:03:03;95914.66;;;15.25;89.20
18167;BME280;9208;42.688;23.404;2023-05-14T00:05:29;95909.13;;;15.19;89.77
18167;BME280;9208;42.688;23.404;2023-05-14T00:07:54;95911.63;;;15.23;89.72
18167;BME280;9208;42.688;23.404;2023-05-14T00:10:20;95901.31;;;15.12;90.18
18167;BME280;9208;42.688;23.404;2023-05-14T00:12:46;95893.25;;;15.03;90.19
18167;BME280;9208;42.688;23.404;2023-05-14T00:15:12;95901.28;;;15.07;90.46
18167;BME280;9208;42.688;23.404;2023-05-14T00:17:37;95890.25;;;15.07;90.49
18167;BME280;9208;42.688;23.404;2023-05-14T00:20:04;95893.78;;;15.13;90.45
18167;BME280;9208;42.688;23.404;2023-05-14T00:22:32;95879.94;;;15.07;89.92
18167;BME280;9208;42.688;23.404;2023-05-14T00:24:57;95900.59;;;15.17;89.06
18167;BME280;9208;42.688;23.404;2023-05-14T00:27:23;95898.00;;;15.03;89.54
18167;BME280;9208;42.688;23.404;2023-05-14T00:29:48;95903.03;;;15.04;89.72
18167;BME280;9208;42.688;23.404;2023-05-14T00:32:14;95888.75;;;15.06;89.56
18167;BME280;9208;42.688;23.404;2023-05-14T00:34:40;95891.28;;;15.15;89.34
18167;BME280;9208;42.688;23.404;2023-05-14T00:37:05;95895.81;;;15.23;88.45
18167;BME280;9208;42.688;23.404;2023-05-14T00:39:31;95901.63;;;15.31;87.73
18167;BME280;9208;42.688;23.404;2023-05-14T00:41:56;95887.81;;;15.31;87.44
18167;BME280;9208;42.688;23.404;2023-05-14T00:44:22;95900.66;;;15.34;87.36
18167;BME280;9208;42.688;23.404;2023-05-14T00:46:48;95905.47;;;15.44;86.78
18167;BME280;9208;42.688;23.404;2023-05-14T00:49:14;95896.44;;;15.49;85.79
18167;BME280;9208;42.688;23.404;2023-05-14T00:51:39;95901.97;;;15.49;85.61
18167;BME280;9208;42.688;23.404;2023-05-14T00:54:06;95909.25;;;15.47;84.56
18167;BME280;9208;42.688;23.404;2023-05-14T00:56:33;95903.94;;;15.38;84.99
18167;BME280;9208;42.688;23.404;2023-05-14T00:58:59;95911.22;;;15.41;83.88
18167;BME280;9208;42.688;23.404;2023-05-14T01:01:25;95894.16;;;15.37;83.46
18167;BME280;9208;42.688;23.404;2023-05-14T01:03:53;95899.44;;;15.40;83.00
18167;BME280;9208;42.688;23.404;2023-05-14T01:09:24;95902.22;;;15.46;83.26
18167;BME280;9208;42.688;23.404;2023-05-14T01:12:02;95895.66;;;15.38;83.38
18167;BME280;9208;42.688;23.404;2023-05-14T01:14:43;95899.16;;;15.38;83.32
18167;BME280;9208;42.688;23.404;2023-05-14T01:17:10;95889.63;;;15.34;83.04
18167;BME280;9208;42.688;23.404;2023-05-14T01:19:41;95875.50;;;15.32;82.88
18167;BME280;9208;42.688;23.404;2023-05-14T01:22:07;95888.56;;;15.31;82.92
18167;BME280;9208;42.688;23.404;2023-05-14T01:24:33;95886.78;;;15.28;82.10
18167;BME280;9208;42.688;23.404;2023-05-14T01:27:33;95913.66;;;15.22;82.15
18167;BME280;9208;42.688;23.404;2023-05-14T01:30:20;95927.19;;;15.15;81.87
18167;BME280;9208;42.688;23.404;2023-05-14T01:32:50;95926.44;;;15.14;81.54
18167;BME280;9208;42.688;23.404;2023-05-14T01:35:18;95940.78;;;15.24;81.46
18167;BME280;9208;42.688;23.404;2023-05-14T01:37:44;95939.03;;;15.26;81.10
18167;BME280;9208;42.688;23.404;2023-05-14T01:40:11;95929.47;;;15.22;81.27
18167;BME280;9208;42.688;23.404;2023-05-14T01:42:38;95921.19;;;15.22;81.09
18167;BME280;9208;42.688;23.404;2023-05-14T01:45:04;95919.16;;;15.17;81.41
18167;BME280;9208;42.688;23.404;2023-05-14T01:47:31;95928.69;;;15.16;80.98
18167;BME280;9208;42.688;23.404;2023-05-14T01:49:56;95919.63;;;15.04;81.11
18167;BME280;9208;42.688;23.404;2023-05-14T01:52:22;95919.81;;;15.01;80.74
18167;BME280;9208;42.688;23.404;2023-05-14T01:54:48;95921.31;;;14.96;80.70
18167;BME280;9208;42.688;23.404;2023-05-14T01:57:13;95920.13;;;15.08;80.24
18167;BME280;9208;42.688;23.404;2023-05-14T01:59:38;95927.38;;;15.00;80.54
18167;BME280;9208;42.688;23.404;2023-05-14T02:02:04;95931.09;;;14.97;80.61
18167;BME280;9208;42.688;23.404;2023-05-14T02:04:29;95931.38;;;15.05;80.22
18167;BME280;9208;42.688;23.404;2023-05-14T02:06:55;95931.63;;;15.01;80.53
18167;BME280;9208;42.688;23.404;2023-05-14T02:09:20;95927.84;;;14.99;81.25
18167;BME280;9208;42.688;23.404;2023-05-14T02:11:46;95911.31;;;15.04;82.06
18167;BME280;9208;42.688;23.404;2023-05-14T02:14:11;95905.53;;;14.97;82.96
18167;BME280;9208;42.688;23.404;2023-05-14T02:16:39;95894.94;;;14.90;83.50
18167;BME280;9208;42.688;23.404;2023-05-14T02:19:04;95896.44;;;14.91;83.88
18167;BME280;9208;42.688;23.404;2023-05-14T02:21:30;95879.81;;;14.74;84.37
18167;BME280;9208;42.688;23.404;2023-05-14T02:23:56;95889.34;;;14.73;84.24
18167;BME280;9208;42.688;23.404;2023-05-14T02:26:21;95895.63;;;14.79;84.18
18167;BME280;9208;42.688;23.404;2023-05-14T02:28:47;95895.34;;;14.72;83.53
18167;BME280;9208;42.688;23.404;2023-05-14T02:31:12;95899.09;;;14.69;83.76
18167;BME280;9208;42.688;23.404;2023-05-14T02:33:38;95907.44;;;14.80;83.31
18167;BME280;9208;42.688;23.404;2023-05-14T02:36:04;95910.94;;;14.80;84.01
18167;BME280;9208;42.688;23.404;2023-05-14T02:38:29;95904.16;;;14.76;84.64
18167;BME280;9208;42.688;23.404;2023-05-14T02:40:55;95897.84;;;14.70;85.40
18167;BME280;9208;42.688;23.404;2023-05-14T02:43:21;95908.13;;;14.69;85.50
18167;BME280;9208;42.688;23.404;2023-05-14T02:45:46;95912.91;;;14.74;85.33
18167;BME280;9208;42.688;23.404;2023-05-14T02:48:12;95909.78;;;14.56;85.67
18167;BME280;9208;42.688;23.404;2023-05-14T02:50:37;95928.22;;;14.70;84.88
18167;BME280;9208;42.688;23.404;2023-05-14T02:53:03;95927.16;;;14.62;85.13
18167;BME280;9208;42.688;23.404;2023-05-14T02:55:28;95938.75;;;14.71;83.98
18167;BME280;9208;42.688;23.404;2023-05-14T02:57:54;95937.75;;;14.74;83.80
18167;BME280;9208;42.688;23.404;2023-05-14T03:00:21;95930.47;;;14.71;83.88
18167;BME280;9208;42.688;23.404;2023-05-14T03:02:46;95928.66;;;14.63;84.15
18167;BME280;9208;42.688;23.404;2023-05-14T03:05:12;95919.59;;;14.57;84.73
18167;BME280;9208;42.688;23.404;2023-05-14T03:07:37;95919.81;;;14.53;84.92
18167;BME280;9208;42.688;23.404;2023-05-14T03:10:03;95925.38;;;14.59;84.78
18167;BME280;9208;42.688;23.404;2023-05-14T03:12:28;95927.59;;;14.49;84.69
18167;BME280;9208;42.688;23.404;2023-05-14T03:14:54;95926.66;;;14.63;84.07
18167;BME280;9208;42.688;23.404;2023-05-14T03:17:20;95923.88;;;14.58;84.16
18167;BME280;9208;42.688;23.404;2023-05-14T03:19:45;95907.75;;;14.45;84.84
18167;BME280;9208;42.688;23.404;2023-05-14T03:22:11;95890.19;;;14.43;85.13
18167;BME280;9208;42.688;23.404;2023-05-14T03:24:38;95889.84;;;14.35;84.96
18167;BME280;9208;42.688;23.404;2023-05-14T03:27:04;95895.94;;;14.45;85.17
18167;BME280;9208;42.688;23.404;2023-05-14T03:29:29;95909.00;;;14.50;84.94
18167;BME280;9208;42.688;23.404;2023-05-14T03:31:55;95908.22;;;14.44;85.05
18167;BME280;9208;42.688;23.404;2023-05-14T03:34:21;95903.97;;;14.43;84.51
18167;BME280;9208;42.688;23.404;2023-05-14T03:36:46;95921.56;;;14.51;84.65
18167;BME280;9208;42.688;23.404;2023-05-14T03:39:12;95912.75;;;14.47;84.33
18167;BME280;9208;42.688;23.404;2023-05-14T03:41:40;95932.94;;;14.64;84.75
18167;BME280;9208;42.688;23.404;2023-05-14T03:44:05;95928.22;;;14.70;86.02
18167;BME280;9208;42.688;23.404;2023-05-14T03:46:31;95892.84;;;14.74;88.76
18167;BME280;9208;42.688;23.404;2023-05-14T03:48:57;95880.78;;;14.71;90.43
18167;BME280;9208;42.688;23.404;2023-05-14T03:51:22;95880.28;;;14.73;90.90
18167;BME280;9208;42.688;23.404;2023-05-14T03:53:48;95877.09;;;14.80;92.75
18167;BME280;9208;42.688;23.404;2023-05-14T03:56:13;95898.31;;;14.63;96.96
18167;BME280;9208;42.688;23.404;2023-05-14T03:58:39;95921.31;;;14.49;98.56
18167;BME280;9208;42.688;23.404;2023-05-14T04:01:04;95932.34;;;14.49;98.88
18167;BME280;9208;42.688;23.404;2023-05-14T04:03:30;95926.06;;;14.48;98.31
18167;BME280;9208;42.688;23.404;2023-05-14T04:05:55;95923.03;;;14.46;98.93
18167;BME280;9208;42.688;23.404;2023-05-14T04:08:21;95918.72;;;14.40;99.49
18167;BME280;9208;42.688;23.404;2023-05-14T04:10:46;95933.59;;;14.48;99.18
18167;BME280;9208;42.688;23.404;2023-05-14T04:13:11;95932.56;;;14.45;99.64
18167;BME280;9208;42.688;23.404;2023-05-14T04:15:37;95937.38;;;14.50;99.22
18167;BME280;9208;42.688;23.404;2023-05-14T04:18:03;95940.91;;;14.56;99.56
18167;BME280;9208;42.688;23.404;2023-05-14T04:20:29;95946.91;;;14.55;100.00
18167;BME280;9208;42.688;23.404;2023-05-14T04:22:55;95933.41;;;14.57;99.90
18167;BME280;9208;42.688;23.404;2023-05-14T04:25:20;95932.16;;;14.58;99.15
18167;BME280;9208;42.688;23.404;2023-05-14T04:27:46;95942.66;;;14.54;98.52
18167;BME280;9208;42.688;23.404;2023-05-14T04:30:11;95931.84;;;14.50;98.38
18167;BME280;9208;42.688;23.404;2023-05-14T04:32:37;95940.06;;;14.45;98.27
18167;BME280;9208;42.688;23.404;2023-05-14T04:35:03;95950.88;;;14.43;97.44
18167;BME280;9208;42.688;23.404;2023-05-14T04:37:29;95957.59;;;14.42;97.06
18167;BME280;9208;42.688;23.404;2023-05-14T04:39:55;95960.69;;;14.49;95.83
18167;BME280;9208;42.688;23.404;2023-05-14T04:42:20;95973.91;;;14.40;95.61
18167;BME280;9208;42.688;23.404;2023-05-14T04:44:46;95968.91;;;14.44;95.44
18167;BME280;9208;42.688;23.404;2023-05-14T04:47:11;95964.13;;;14.44;96.33
18167;BME280;9208;42.688;23.404;2023-05-14T04:49:37;95972.94;;;14.43;97.02
18167;BME280;9208;42.688;23.404;2023-05-14T04:52:02;95967.19;;;14.46;98.07
18167;BME280;9208;42.688;23.404;2023-05-14T04:54:28;95977.69;;;14.42;100.00
18167;BME280;9208;42.688;23.404;2023-05-14T04:56:53;95981.16;;;14.37;100.00
18167;BME280;9208;42.688;23.404;2023-05-14T04:59:20;95984.66;;;14.38;100.00
18167;BME280;9208;42.688;23.404;2023-05-14T05:01:46;95988.84;;;14.28;100.00
18167;BME280;9208;42.688;23.404;2023-05-14T05:04:11;95989.88;;;14.30;100.00
18167;BME280;9208;42.688;23.404;2023-05-14T05:06:37;96005.63;;;14.24;100.00
18167;BME280;9208;42.688;23.404;2023-05-14T05:09:03;96009.34;;;14.21;100.00
18167;BME280;9208;42.688;23.404;2023-05-14T05:11:30;96010.50;;;14.15;100.00
18167;BME280;9208;42.688;23.404;2023-05-14T05:13:55;96020.50;;;14.12;100.00
18167;BME280;9208;42.688;23.404;2023-05-14T05:16:20;96025.81;;;14.16;100.00
18167;BME280;9208;42.688;23.404;2023-05-14T05:18:46;96035.31;;;14.15;100.00
18167;BME280;9208;42.688;23.404;2023-05-14T05:21:11;96030.03;;;14.11;100.00
18167;BME280;9208;42.688;23.404;2023-05-14T05:23:37;96032.06;;;14.16;100.00
18167;BME280;9208;42.688;23.404;2023-05-14T05:26:02;96037.34;;;14.14;100.00
18167;BME280;9208;42.688;23.404;2023-05-14T05:28:28;96043.97;;;14.02;100.00
18167;BME280;9208;42.688;23.404;2023-05-14T05:30:53;96055.22;;;13.99;100.00
18167;BME280;9208;42.688;23.404;2023-05-14T05:33:19;96047.66;;;13.94;100.00
18167;BME280;9208;42.688;23.404;2023-05-14T05:35:44;96060.03;;;13.84;100.00
18167;BME280;9208;42.688;23.404;2023-05-14T05:38:10;96051.25;;;13.80;100.00
18167;BME280;9208;42.688;23.404;2023-05-14T05:40:35;96066.88;;;13.68;100.00
18167;BME280;9208;42.688;23.404;2023-05-14T05:43:01;96056.13;;;13.70;100.00
18167;BME280;9208;42.688;23.404;2023-05-14T05:45:26;96057.31;;;13.64;100.00
18167;BME280;9208;42.688;23.404;2023-05-14T05:47:52;96058.81;;;13.65;100.00
18167;BME280;9208;42.688;23.404;2023-05-14T05:50:17;96047.72;;;13.59;100.00
18167;BME280;9208;42.688;23.404;2023-05-14T05:52:43;96060.84;;;13.64;100.00
18167;BME280;9208;42.688;23.404;2023-05-14T05:55:09;96062.50;;;13.56;100.00
18167;BME280;9208;42.688;23.404;2023-05-14T05:57:34;96069.38;;;13.66;100.00
18167;BME280;9208;42.688;23.404;2023-05-14T05:59:59;96075.66;;;13.67;100.00
18167;BME280;9208;42.688;23.404;2023-05-14T06:02:25;96061.66;;;13.70;100.00
18167;BME280;9208;42.688;23.404;2023-05-14T06:04:50;96057.78;;;13.62;100.00
18167;BME280;9208;42.688;23.404;2023-05-14T06:07:17;96046.22;;;13.58;100.00
18167;BME280;9208;42.688;23.404;2023-05-14T06:09:42;96045.75;;;13.60;100.00
18167;BME280;9208;42.688;23.404;2023-05-14T06:12:08;96054.31;;;13.62;100.00
18167;BME280;9208;42.688;23.404;2023-05-14T06:14:36;96049.06;;;13.64;100.00
18167;BME280;9208;42.688;23.404;2023-05-14T06:17:01;96055.34;;;13.64;100.00
18167;BME280;9208;42.688;23.404;2023-05-14T06:19:27;96061.88;;;13.67;100.00
18167;BME280;9208;42.688;23.404;2023-05-14T06:21:52;96053.53;;;13.61;100.00
18167;BME280;9208;42.688;23.404;2023-05-14T06:24:18;96050.47;;;13.59;100.00
18167;BME280;9208;42.688;23.404;2023-05-14T06:26:44;96041.47;;;13.59;100.00
18167;BME280;9208;42.688;23.404;2023-05-14T06:29:10;96045.34;;;13.67;100.00
18167;BME280;9208;42.688;23.404;2023-05-14T06:31:35;96032.75;;;13.60;100.00
18167;BME280;9208;42.688;23.404;2023-05-14T06:34:01;96047.94;;;13.76;100.00
18167;BME280;9208;42.688;23.404;2023-05-14T06:36:26;96052.91;;;13.72;100.00
18167;BME280;9208;42.688;23.404;2023-05-14T06:38:52;96064.34;;;13.65;100.00
18167;BME280;9208;42.688;23.404;2023-05-14T06:41:17;96073.84;;;13.64;100.00
18167;BME280;9208;42.688;23.404;2023-05-14T06:43:42;96064.56;;;13.61;100.00
18167;BME280;9208;42.688;23.404;2023-05-14T06:46:08;96063.59;;;13.64;100.00
18167;BME280;9208;42.688;23.404;2023-05-14T06:48:33;96060.34;;;13.66;100.00
18167;BME280;9208;42.688;23.404;2023-05-14T06:50:59;96046.84;;;13.68;100.00
18167;BME280;9208;42.688;23.404;2023-05-14T06:53:24;96046.91;;;13.73;100.00
18167;BME280;9208;42.688;23.404;2023-05-14T06:55:50;96037.03;;;13.87;100.00
18167;BME280;9208;42.688;23.404;2023-05-14T06:58:15;96031.50;;;14.07;100.00
18167;BME280;9208;42.688;23.404;2023-05-14T07:00:41;96032.16;;;14.02;100.00
18167;BME280;9208;42.688;23.404;2023-05-14T07:03:07;96022.47;;;14.06;100.00
18167;BME280;9208;42.688;23.404;2023-05-14T07:05:32;96019.94;;;14.03;100.00
18167;BME280;9208;42.688;23.404;2023-05-14T07:07:58;96030.19;;;14.02;100.00
18167;BME280;9208;42.688;23.404;2023-05-14T07:10:23;96026.00;;;14.12;100.00
18167;BME280;9208;42.688;23.404;2023-05-14T07:12:49;96039.53;;;14.10;100.00
18167;BME280;9208;42.688;23.404;2023-05-14T07:15:15;96034.84;;;14.16;100.00
18167;BME280;9208;42.688;23.404;2023-05-14T07:17:43;96024.44;;;14.06;100.00
18167;BME280;9208;42.688;23.404;2023-05-14T07:20:09;96045.31;;;14.12;100.00
18167;BME280;9208;42.688;23.404;2023-05-14T07:22:35;96067.69;;;14.20;100.00
18167;BME280;9208;42.688;23.404;2023-05-14T07:25:00;96081.09;;;14.27;100.00
18167;BME280;9208;42.688;23.404;2023-05-14T07:27:26;96085.97;;;14.17;100.00
18167;BME280;9208;42.688;23.404;2023-05-14T07:29:52;96079.94;;;14.13;100.00
18167;BME280;9208;42.688;23.404;2023-05-14T07:32:17;96075.47;;;14.16;100.00
18167;BME280;9208;42.688;23.404;2023-05-14T07:34:43;96061.66;;;14.16;100.00
18167;BME280;9208;42.688;23.404;2023-05-14T07:37:08;96053.16;;;14.19;100.00
18167;BME280;9208;42.688;23.404;2023-05-14T07:39:34;96053.84;;;14.34;100.00
18167;BME280;9208;42.688;23.404;2023-05-14T07:42:00;96053.63;;;14.38;100.00
18167;BME280;9208;42.688;23.404;2023-05-14T07:44:25;96066.19;;;14.39;100.00
18167;BME280;9208;42.688;23.404;2023-05-14T07:46:51;96065.03;;;14.51;100.00
18167;BME280;9208;42.688;23.404;2023-05-14T07:49:16;96067.03;;;14.50;100.00
18167;BME280;9208;42.688;23.404;2023-05-14T07:51:42;96069.31;;;14.52;100.00
18167;BME280;9208;42.688;23.404;2023-05-14T07:54:07;96067.78;;;14.51;100.00
18167;BME280;9208;42.688;23.404;2023-05-14T07:56:33;96066.81;;;14.54;100.00
18167;BME280;9208;42.688;23.404;2023-05-14T07:58:58;96075.56;;;14.52;100.00
18167;BME280;9208;42.688;23.404;2023-05-14T08:01:24;96085.41;;;14.59;100.00
18167;BME280;9208;42.688;23.404;2023-05-14T08:03:50;96093.25;;;14.66;100.00
18167;BME280;9208;42.688;23.404;2023-05-14T08:06:15;96089.03;;;14.70;100.00
18167;BME280;9208;42.688;23.404;2023-05-14T08:08:41;96089.06;;;14.76;100.00
18167;BME280;9208;42.688;23.404;2023-05-14T08:11:06;96084.31;;;14.76;100.00
18167;BME280;9208;42.688;23.404;2023-05-14T08:13:32;96065.69;;;14.71;100.00
18167;BME280;9208;42.688;23.404;2023-05-14T08:15:57;96073.31;;;14.82;100.00
18167;BME280;9208;42.688;23.404;2023-05-14T08:18:23;96064.25;;;14.76;100.00
18167;BME280;9208;42.688;23.404;2023-05-14T08:20:48;96058.78;;;14.81;100.00
18167;BME280;9208;42.688;23.404;2023-05-14T08:23:14;96069.34;;;14.88;100.00
18167;BME280;9208;42.688;23.404;2023-05-14T08:25:39;96069.56;;;14.85;100.00
18167;BME280;9208;42.688;23.404;2023-05-14T08:28:05;96050.69;;;14.78;100.00
18167;BME280;9208;42.688;23.404;2023-05-14T08:30:31;96051.72;;;14.80;100.00
18167;BME280;9208;42.688;23.404;2023-05-14T08:32:57;96052.03;;;14.88;100.00
18167;BME280;9208;42.688;23.404;2023-05-14T08:35:23;96043.94;;;14.79;100.00
18167;BME280;9208;42.688;23.404;2023-05-14T08:37:48;96050.97;;;14.80;100.00
18167;BME280;9208;42.688;23.404;2023-05-14T08:40:15;96043.66;;;14.77;100.00
18167;BME280;9208;42.688;23.404;2023-05-14T08:42:40;96044.16;;;14.75;100.00
18167;BME280;9208;42.688;23.404;2023-05-14T08:45:18;96030.94;;;14.54;100.00
18167;BME280;9208;42.688;23.404;2023-05-14T08:47:47;96032.44;;;14.55;100.00
18167;BME280;9208;42.688;23.404;2023-05-14T08:50:14;96007.31;;;14.47;100.00
18167;BME280;9208;42.688;23.404;2023-05-14T08:52:40;96018.13;;;14.51;100.00
18167;BME280;9208;42.688;23.404;2023-05-14T08:55:06;96031.66;;;14.49;100.00
18167;BME280;9208;42.688;23.404;2023-05-14T08:57:32;96022.53;;;14.37;100.00
18167;BME280;9208;42.688;23.404;2023-05-14T08:59:58;96019.28;;;14.39;100.00
18167;BME280;9208;42.688;23.404;2023-05-14T09:02:28;96009.41;;;14.27;100.00
18167;BME280;9208;42.688;23.404;2023-05-14T09:04:56;96013.38;;;14.00;100.00
18167;BME280;9208;42.688;23.404;2023-05-14T09:07:22;96016.78;;;13.70;100.00
18167;BME280;9208;42.688;23.404;2023-05-14T09:09:48;96028.25;;;13.63;100.00
18167;BME280;9208;42.688;23.404;2023-05-14T09:12:14;96029.97;;;13.60;100.00
18167;BME280;9208;42.688;23.404;2023-05-14T09:14:40;96027.38;;;13.51;100.00
18167;BME280;9208;42.688;23.404;2023-05-14T09:17:06;96016.75;;;13.44;100.00
18167;BME280;9208;42.688;23.404;2023-05-14T09:19:32;96018.06;;;13.49;100.00
18167;BME280;9208;42.688;23.404;2023-05-14T09:21:57;96012.81;;;13.51;100.00
18167;BME280;9208;42.688;23.404;2023-05-14T09:24:24;96017.78;;;13.47;100.00
18167;BME280;9208;42.688;23.404;2023-05-14T09:26:56;96028.25;;;13.43;100.00
18167;BME280;9208;42.688;23.404;2023-05-14T09:29:25;96031.44;;;13.36;100.00
18167;BME280;9208;42.688;23.404;2023-05-14T09:31:51;96030.19;;;13.37;100.00
18167;BME280;9208;42.688;23.404;2023-05-14T09:34:27;96007.13;;;13.34;100.00
18167;BME280;9208;42.688;23.404;2023-05-14T09:36:57;96010.34;;;13.33;100.00
18167;BME280;9208;42.688;23.404;2023-05-14T09:39:23;96006.34;;;13.34;100.00
18167;BME280;9208;42.688;23.404;2023-05-14T09:41:50;96015.03;;;13.27;100.00
18167;BME280;9208;42.688;23.404;2023-05-14T09:44:19;96005.28;;;13.26;100.00
18167;BME280;9208;42.688;23.404;2023-05-14T09:46:45;95992.94;;;13.21;100.00
18167;BME280;9208;42.688;23.404;2023-05-14T09:49:11;95985.16;;;13.20;100.00
18167;BME280;9208;42.688;23.404;2023-05-14T09:51:37;96004.34;;;13.14;100.00
18167;BME280;9208;42.688;23.404;2023-05-14T09:54:05;95995.78;;;12.92;100.00
18167;BME280;9208;42.688;23.404;2023-05-14T09:56:32;95991.44;;;12.86;100.00
18167;BME280;9208;42.688;23.404;2023-05-14T09:58:58;95992.88;;;12.81;100.00
18167;BME280;9208;42.688;23.404;2023-05-14T10:01:23;95989.25;;;12.90;100.00
18167;BME280;9208;42.688;23.404;2023-05-14T10:03:49;95992.94;;;13.21;100.00
18167;BME280;9208;42.688;23.404;2023-05-14T10:06:18;95989.97;;;13.45;100.00
18167;BME280;9208;42.688;23.404;2023-05-14T10:08:47;95979.78;;;13.76;100.00
18167;BME280;9208;42.688;23.404;2023-05-14T10:11:24;95968.91;;;13.87;100.00
18167;BME280;9208;42.688;23.404;2023-05-14T10:14:06;95967.66;;;13.88;100.00
18167;BME280;9208;42.688;23.404;2023-05-14T10:16:50;95952.13;;;13.91;100.00
18167;BME280;9208;42.688;23.404;2023-05-14T10:19:19;95963.41;;;14.18;100.00
18167;BME280;9208;42.688;23.404;2023-05-14T10:21:47;95973.28;;;14.25;100.00
18167;BME280;9208;42.688;23.404;2023-05-14T10:24:17;95954.25;;;14.27;100.00
18167;BME280;9208;42.688;23.404;2023-05-14T10:26:44;95941.94;;;14.28;100.00
18167;BME280;9208;42.688;23.404;2023-05-14T10:29:10;95946.00;;;14.32;100.00
18167;BME280;9208;42.688;23.404;2023-05-14T10:34:39;95971.19;;;14.45;100.00
18167;BME280;9208;42.688;23.404;2023-05-14T10:37:24;95982.94;;;14.40;100.00
18167;BME280;9208;42.688;23.404;2023-05-14T10:39:52;95964.31;;;14.35;100.00
18167;BME280;9208;42.688;23.404;2023-05-14T10:42:20;95957.00;;;14.27;100.00
18167;BME280;9208;42.688;23.404;2023-05-14T10:45:06;95975.06;;;14.28;100.00
18167;BME280;9208;42.688;23.404;2023-05-14T10:47:34;95964.84;;;14.34;100.00
18167;BME280;9208;42.688;23.404;2023-05-14T10:50:02;95952.06;;;14.36;100.00
18167;BME280;9208;42.688;23.404;2023-05-14T10:52:29;95957.06;;;14.38;100.00
18167;BME280;9208;42.688;23.404;2023-05-14T10:55:00;95964.13;;;14.44;100.00
18167;BME280;9208;42.688;23.404;2023-05-14T10:57:29;95965.41;;;14.43;100.00
18167;BME280;9208;42.688;23.404;2023-05-14T10:59:57;95964.41;;;14.46;100.00
18167;BME280;9208;42.688;23.404;2023-05-14T11:02:32;95956.81;;;14.36;100.00
18167;BME280;9208;42.688;23.404;2023-05-14T11:05:01;95956.88;;;14.47;100.00
18167;BME280;9208;42.688;23.404;2023-05-14T11:07:34;95945.59;;;14.45;100.00
18167;BME280;9208;42.688;23.404;2023-05-14T11:10:08;95947.81;;;14.41;100.00
18167;BME280;9208;42.688;23.404;2023-05-14T11:12:36;95952.31;;;14.38;100.00
18167;BME280;9208;42.688;23.404;2023-05-14T11:15:05;95948.28;;;14.34;100.00
18167;BME280;9208;42.688;23.404;2023-05-14T11:17:31;95939.81;;;14.43;100.00
18167;BME280;9208;42.688;23.404;2023-05-14T11:19:57;95952.81;;;14.37;100.00
18167;BME280;9208;42.688;23.404;2023-05-14T11:22:23;95959.81;;;14.38;100.00
18167;BME280;9208;42.688;23.404;2023-05-14T11:24:49;95959.53;;;14.30;100.00
18167;BME280;9208;42.688;23.404;2023-05-14T11:27:16;95953.97;;;14.25;100.00
18167;BME280;9208;42.688;23.404;2023-05-14T11:29:46;95952.44;;;14.24;100.00
18167;BME280;9208;42.688;23.404;2023-05-14T11:32:13;95945.25;;;14.32;100.00
18167;BME280;9208;42.688;23.404;2023-05-14T11:34:39;95954.31;;;14.38;100.00
18167;BME280;9208;42.688;23.404;2023-05-14T11:37:06;95947.34;;;14.42;100.00
18167;BME280;9208;42.688;23.404;2023-05-14T11:39:32;95941.38;;;14.49;100.00
18167;BME280;9208;42.688;23.404;2023-05-14T11:42:18;95941.06;;;14.42;100.00
18167;BME280;9208;42.688;23.404;2023-05-14T11:44:49;95940.03;;;14.39;100.00
18167;BME280;9208;42.688;23.404;2023-05-14T11:47:17;95940.06;;;14.45;100.00
18167;BME280;9208;42.688;23.404;2023-05-14T11:49:43;95928.50;;;14.41;100.00
18167;BME280;9208;42.688;23.404;2023-05-14T11:52:10;95921.53;;;14.45;100.00
18167;BME280;9208;42.688;23.404;2023-05-14T11:54:38;95933.34;;;14.51;100.00
18167;BME280;9208;42.688;23.404;2023-05-14T11:57:09;95937.38;;;14.50;100.00
18167;BME280;9208;42.688;23.404;2023-05-14T11:59:36;95932.88;;;14.53;100.00
18167;BME280;9208;42.688;23.404;2023-05-14T12:02:02;95921.31;;;14.49;100.00
18167;BME280;9208;42.688;23.404;2023-05-14T12:04:29;95925.56;;;14.50;100.00
18167;BME280;9208;42.688;23.404;2023-05-14T12:06:57;95918.88;;;14.62;100.00
18167;BME280;9208;42.688;23.404;2023-05-14T12:09:23;95906.59;;;14.63;100.00
18167;BME280;9208;42.688;23.404;2023-05-14T12:11:50;95912.63;;;14.67;100.00
18167;BME280;9208;42.688;23.404;2023-05-14T12:14:18;95904.34;;;14.67;100.00
18167;BME280;9208;42.688;23.404;2023-05-14T12:16:45;95902.13;;;14.71;100.00
18167;BME280;9208;42.688;23.404;2023-05-14T12:19:13;95897.06;;;14.64;100.00
18167;BME280;9208;42.688;23.404;2023-05-14T12:21:39;95882.47;;;14.58;100.00
18167;BME280;9208;42.688;23.404;2023-05-14T12:24:09;95883.50;;;14.60;100.00
18167;BME280;9208;42.688;23.404;2023-05-14T12:26:35;95875.47;;;14.62;100.00
18167;BME280;9208;42.688;23.404;2023-05-14T12:29:03;95874.78;;;14.67;100.00
18167;BME280;9208;42.688;23.404;2023-05-14T12:31:32;95872.50;;;14.71;100.00
18167;BME280;9208;42.688;23.404;2023-05-14T12:33:58;95876.03;;;14.72;100.00
18167;BME280;9208;42.688;23.404;2023-05-14T12:36:24;95870.25;;;14.70;100.00
18167;BME280;9208;42.688;23.404;2023-05-14T12:38:50;95867.97;;;14.63;100.00
18167;BME280;9208;42.688;23.404;2023-05-14T12:41:21;95855.91;;;14.60;100.00
18167;BME280;9208;42.688;23.404;2023-05-14T12:43:47;95861.47;;;14.66;100.00
18167;BME280;9208;42.688;23.404;2023-05-14T12:46:13;95846.13;;;14.65;100.00
18167;BME280;9208;42.688;23.404;2023-05-14T12:48:38;95852.69;;;14.73;100.00
18167;BME280;9208;42.688;23.404;2023-05-14T12:51:04;95856.22;;;14.73;100.00
18167;BME280;9208;42.688;23.404;2023-05-14T12:53:30;95848.41;;;14.66;100.00
18167;BME280;9208;42.688;23.404;2023-05-14T12:55:55;95858.00;;;14.76;100.00